Time;durP1;ratioP1;P1;durP2;ratioP2;P2;SDS_P1;SDS_P2;PMS_P1;PMS_P2;Temp;Humidity;BMP_temperature;BMP_pressure;BME280_temperature;BME280_humidity;BME280_pressure;Samples;Min_cycle;Max_cycle;Signal;HPM_P1;HPM_P2
2023/05/24 00:01:24;;;;;;;6.20;2.83;;;19.50;74.30;;;;;;5013862;28;20437;-29
2023/05/24 00:03:51;;;;;;;7.20;2.80;;;19.50;74.70;;;;;;5013657;28;20046;-29
2023/05/24 00:06:17;;;;;;;6.95;2.50;;;19.50;74.70;;;;;;5013916;28;20128;-29
2023/05/24 00:08:44;;;;;;;6.15;2.45;;;18.70;66.20;;;;;;5014308;28;20058;-29
2023/05/24 00:11:11;;;;;;;5.30;2.97;;;19.60;74.40;;;;;;5014226;28;20056;-29
2023/05/24 00:13:37;;;;;;;5.35;2.70;;;19.00;74.50;;;;;;5013798;28;20148;-29
2023/05/24 00:16:06;;;;;;;4.93;2.17;;;19.70;59.60;;;;;;5013000;28;20140;-30
2023/05/24 00:18:32;;;;;;;6.45;2.53;;;19.60;63.80;;;;;;5013696;28;20136;-29
2023/05/24 00:20:59;;;;;;;7.72;2.75;;;19.60;74.70;;;;;;5013760;28;20476;-29
2023/05/24 00:23:26;;;;;;;5.90;2.50;;;19.30;58.70;;;;;;5013434;28;20112;-29
2023/05/24 00:25:53;;;;;;;7.55;2.60;;;20.00;70.80;;;;;;5013604;28;20140;-29
2023/05/24 00:28:20;;;;;;;6.22;2.70;;;19.00;74.00;;;;;;5013810;28;20053;-29
2023/05/24 00:30:46;;;;;;;5.20;2.38;;;19.60;74.80;;;;;;5013457;28;20096;-29
2023/05/24 00:33:14;;;;;;;8.00;2.90;;;19.30;56.40;;;;;;5013157;28;20056;-29
2023/05/24 00:35:41;;;;;;;6.30;2.35;;;19.70;72.30;;;;;;4995776;28;20049;-29
2023/05/24 00:38:08;;;;;;;7.07;2.65;;;19.10;74.20;;;;;;5013260;28;20060;-29
2023/05/24 00:40:34;;;;;;;6.07;2.53;;;19.50;74.50;;;;;;5013781;28;20125;-29
2023/05/24 00:43:01;;;;;;;6.15;2.20;;;20.40;64.80;;;;;;5013286;28;20046;-30
2023/05/24 00:45:28;;;;;;;4.78;2.38;;;19.50;69.40;;;;;;5012762;28;20079;-29
2023/05/24 00:47:54;;;;;;;6.53;2.78;;;18.20;74.10;;;;;;5013304;28;20136;-29
2023/05/24 00:50:23;;;;;;;4.38;2.33;;;19.50;59.20;;;;;;5013419;28;20058;-29
2023/05/24 00:52:49;;;;;;;8.80;3.03;;;19.00;58.90;;;;;;5013006;28;20128;-29
2023/05/24 00:55:16;;;;;;;6.43;2.60;;;20.20;74.80;;;;;;5013297;28;20052;-29
2023/05/24 00:57:43;;;;;;;5.90;2.67;;;20.30;69.40;;;;;;5013138;28;20148;-29
2023/05/24 01:00:11;;;;;;;6.03;2.50;;;19.20;56.40;;;;;;5012491;28;20054;-30
2023/05/24 01:02:38;;;;;;;6.20;2.40;;;19.10;69.80;;;;;;5012737;28;20053;-29
2023/05/24 01:05:05;;;;;;;5.88;2.92;;;18.90;74.20;;;;;;5013097;28;20132;-29
2023/05/24 01:07:37;;;;;;;5.82;2.83;;;18.60;74.30;;;;;;5012914;28;20096;-29
2023/05/24 01:10:07;;;;;;;7.18;2.60;;;19.00;69.30;;;;;;5012686;28;20077;-29
2023/05/24 01:12:40;;;;;;;5.07;2.60;;;20.20;74.90;;;;;;5011687;28;20710;-28
2023/05/24 01:15:09;;;;;;;5.93;2.60;;;18.30;73.90;;;;;;5012409;28;20136;-29
2023/05/24 01:17:41;;;;;;;6.78;2.60;;;19.20;56.40;;;;;;5012615;28;20519;-30
2023/05/24 01:20:09;;;;;;;3.85;2.38;;;19.40;74.80;;;;;;5012680;28;20487;-29
2023/05/24 01:22:47;;;;;;;5.43;2.42;;;19.20;56.40;;;;;;5012495;28;20152;-30
2023/05/24 01:25:19;;;;;;;6.28;2.50;;;19.60;57.40;;;;;;5012717;28;20152;-29
2023/05/24 01:27:47;;;;;;;7.75;2.50;;;19.50;74.90;;;;;;5011500;28;20509;-29
2023/05/24 01:30:14;;;;;;;4.35;2.45;;;19.40;75.40;;;;;;5012574;28;20133;-29
2023/05/24 01:32:41;;;;;;;6.03;2.65;;;19.50;63.40;;;;;;5012487;28;20050;-29
2023/05/24 01:35:08;;;;;;;6.05;2.30;;;18.20;73.80;;;;;;5012423;28;20064;-29
2023/05/24 01:37:35;;;;;;;8.13;2.88;;;;;;;;;;5011495;28;20046;-30
2023/05/24 01:40:03;;;;;;;6.07;2.30;;;18.80;74.50;;;;;;5012482;28;20054;-29
2023/05/24 01:42:34;;;;;;;6.75;2.83;;;19.60;74.90;;;;;;5012068;28;20088;-29
2023/05/24 01:45:05;;;;;;;5.78;2.45;;;17.90;73.70;;;;;;5012190;28;20470;-29
2023/05/24 01:47:38;;;;;;;5.68;2.60;;;18.60;74.40;;;;;;5012499;28;20054;-29
2023/05/24 01:50:08;;;;;;;5.75;2.50;;;19.40;74.60;;;;;;5012218;28;20089;-29
2023/05/24 01:52:35;;;;;;;7.07;2.97;;;18.40;74.10;;;;;;5011973;28;20141;-29
2023/05/24 01:55:02;;;;;;;6.00;2.40;;;19.60;74.70;;;;;;5011892;28;20513;-29
2023/05/24 01:57:29;;;;;;;4.93;2.50;;;;;;;;;;5012241;28;20072;-30
2023/05/24 01:59:56;;;;;;;3.60;2.30;;;;;;;;;;5011888;28;20050;-29
2023/05/24 02:02:24;;;;;;;3.70;2.38;;;19.10;56.40;;;;;;5011733;28;20057;-30
2023/05/24 02:04:52;;;;;;;6.63;2.20;;;;;;;;;;5011963;28;20046;-30
2023/05/24 02:07:19;;;;;;;5.22;2.22;;;19.20;75.30;;;;;;5011953;28;20129;-29
2023/05/24 02:09:46;;;;;;;6.85;2.67;;;;;;;;;;5012089;28;20057;-30
2023/05/24 02:12:13;;;;;;;5.63;2.92;;;18.90;75.10;;;;;;5011139;28;20082;-29
2023/05/24 02:14:41;;;;;;;6.40;3.00;;;19.50;75.00;;;;;;5012084;28;20084;-29
2023/05/24 02:17:08;;;;;;;6.05;2.50;;;;;;;;;;5011647;28;20046;-31
2023/05/24 02:19:36;;;;;;;4.68;2.03;;;19.00;74.00;;;;;;5011755;28;20133;-29
2023/05/24 02:22:03;;;;;;;4.60;2.35;;;;;;;;;;5011623;28;20440;-29
2023/05/24 02:24:30;;;;;;;4.82;2.40;;;;;;;;;;5011859;28;20053;-30
2023/05/24 02:26:58;;;;;;;5.35;2.53;;;;;;;;;;5011766;28;20050;-29
2023/05/24 02:29:24;;;;;;;6.28;2.40;;;19.20;59.40;;;;;;5011621;28;20056;-30
2023/05/24 02:31:55;;;;;;;6.25;2.50;;;;;;;;;;5011815;28;20049;-30
2023/05/24 02:34:23;;;;;;;5.15;2.40;;;18.80;59.20;;;;;;5011326;28;20128;-29
2023/05/24 02:36:53;;;;;;;6.00;2.70;;;18.10;74.00;;;;;;5011247;28;20057;-29
2023/05/24 02:39:20;;;;;;;5.55;2.83;;;18.30;63.90;;;;;;5012258;28;20502;-29
2023/05/24 02:41:47;;;;;;;7.25;2.20;;;;;;;;;;5015860;28;20049;-30
2023/05/24 02:44:13;;;;;;;5.32;2.28;;;18.80;74.40;;;;;;5015393;28;20053;-29
2023/05/24 02:46:40;;;;;;;7.00;2.67;;;19.20;74.70;;;;;;5015532;28;20128;-29
2023/05/24 02:49:08;;;;;;;4.38;2.15;;;;;;;;;;5015674;28;20133;-29
2023/05/24 02:51:35;;;;;;;7.18;2.75;;;19.00;63.50;;;;;;5015592;28;20060;-29
2023/05/24 02:54:04;;;;;;;4.15;2.30;;;19.00;56.40;;;;;;5014961;28;20105;-29
2023/05/24 02:56:30;;;;;;;5.05;2.30;;;19.30;74.80;;;;;;5015494;28;20057;-29
2023/05/24 02:58:58;;;;;;;6.38;2.53;;;;;;;;;;5015415;28;20132;-30
2023/05/24 03:01:24;;;;;;;6.68;2.63;;;19.00;70.90;;;;;;5015081;28;20128;-29
2023/05/24 03:03:51;;;;;;;7.10;2.65;;;;;;;;;;5015146;28;20049;-30
2023/05/24 03:06:18;;;;;;;9.35;2.47;;;19.80;74.90;;;;;;5015457;28;20056;-29
2023/05/24 03:08:46;;;;;;;4.43;2.33;;;;;;;;;;5015005;28;20137;-29
2023/05/24 03:11:14;;;;;;;4.72;2.30;;;19.30;75.10;;;;;;5014985;28;20129;-29
2023/05/24 03:13:41;;;;;;;6.38;2.38;;;20.10;75.10;;;;;;5014918;28;20108;-29
2023/05/24 03:16:08;;;;;;;5.07;2.15;;;18.90;56.40;;;;;;5015420;28;20049;-30
2023/05/24 03:18:34;;;;;;;4.72;2.17;;;19.70;75.00;;;;;;5015283;28;20128;-29
2023/05/24 03:21:01;;;;;;;5.60;2.20;;;18.60;74.50;;;;;;5015064;28;20060;-29
2023/05/24 03:23:28;;;;;;;5.78;2.25;;;;;;;;;;5014557;28;20407;-29
2023/05/24 03:25:55;;;;;;;5.82;2.85;;;18.60;74.50;;;;;;5014929;28;20068;-29
2023/05/24 03:28:23;;;;;;;3.92;2.30;;;18.40;75.10;;;;;;5014671;28;20140;-29
2023/05/24 03:30:50;;;;;;;5.03;2.30;;;;;;;;;;5015043;28;20054;-30
2023/05/24 03:33:17;;;;;;;6.15;2.60;;;18.60;74.40;;;;;;5014924;28;20132;-29
2023/05/24 03:35:44;;;;;;;5.88;2.63;;;18.90;75.00;;;;;;5014661;28;20138;-30
2023/05/24 03:38:10;;;;;;;5.68;2.40;;;19.00;59.90;;;;;;5014265;28;20052;-30
2023/05/24 03:40:37;;;;;;;5.72;2.28;;;18.70;74.50;;;;;;5014935;28;20128;-29
2023/05/24 03:43:04;;;;;;;5.45;2.20;;;18.50;74.50;;;;;;5014300;28;20140;-29
2023/05/24 03:45:32;;;;;;;5.60;2.28;;;17.70;57.80;;;;;;5014854;28;20053;-29
2023/05/24 03:47:59;;;;;;;5.95;2.70;;;;;;;;;;5013979;28;20113;-30
2023/05/24 03:50:26;;;;;;;4.88;2.13;;;18.90;75.40;;;;;;5014249;28;20058;-29
2023/05/24 03:52:52;;;;;;;4.57;2.15;;;18.90;75.30;;;;;;5014011;28;20050;-29
2023/05/24 03:55:19;;;;;;;7.22;3.25;;;;;;;;;;5014339;28;20128;-29
2023/05/24 03:57:46;;;;;;;4.82;2.38;;;18.10;74.80;;;;;;5014831;28;20140;-29
2023/05/24 04:00:14;;;;;;;4.97;2.08;;;18.90;56.50;;;;;;5014456;28;20053;-30
2023/05/24 04:02:42;;;;;;;4.07;2.08;;;18.80;75.30;;;;;;5013931;28;20057;-29
2023/05/24 04:05:11;;;;;;;5.75;2.13;;;17.60;74.40;;;;;;5013966;28;20046;-29
2023/05/24 04:07:38;;;;;;;3.88;2.10;;;18.30;57.40;;;;;;5014323;28;20088;-29
2023/05/24 04:10:05;;;;;;;7.80;2.45;;;18.70;75.00;;;;;;5014176;28;20108;-29
2023/05/24 04:12:32;;;;;;;4.97;2.22;;;;;;;;;;5014015;28;20053;-31
2023/05/24 04:14:59;;;;;;;6.15;2.42;;;18.90;70.10;;;;;;5010852;28;20069;-29
2023/05/24 04:17:26;;;;;;;6.00;2.40;;;18.80;56.40;;;;;;5013452;28;20069;-30
2023/05/24 04:19:54;;;;;;;3.83;2.10;;;18.30;74.90;;;;;;5013677;28;20132;-29
2023/05/24 04:22:20;;;;;;;4.45;2.00;;;18.60;74.80;;;;;;5010821;28;20050;-29
2023/05/24 04:24:48;;;;;;;4.15;2.20;;;19.30;73.90;;;;;;5013372;28;20045;-29
2023/05/24 04:27:16;;;;;;;6.65;2.40;;;20.00;75.70;;;;;;5014042;28;20054;-29
2023/05/24 04:29:44;;;;;;;4.72;2.22;;;18.70;75.20;;;;;;5013817;28;20045;-29
2023/05/24 04:32:13;;;;;;;4.80;2.25;;;18.90;74.90;;;;;;5013404;28;20065;-29
2023/05/24 04:34:41;;;;;;;4.20;2.30;;;;;;;;;;5013838;28;20046;-31
2023/05/24 04:37:09;;;;;;;5.03;2.08;;;18.80;56.50;;;;;;5013190;28;20089;-31
2023/05/24 04:39:36;;;;;;;5.10;2.38;;;;;;;;;;5013754;28;20057;-30
2023/05/24 04:42:03;;;;;;;4.40;2.13;;;19.70;75.70;;;;;;5013551;28;20054;-30
2023/05/24 04:44:30;;;;;;;4.50;2.30;;;18.80;75.30;;;;;;5008558;28;20038;-29
2023/05/24 04:46:57;;;;;;;6.38;2.45;;;;;;;;;;5005450;28;20057;-30
2023/05/24 04:49:24;;;;;;;5.00;2.28;;;18.90;74.90;;;;;;5007053;28;20053;-29
2023/05/24 04:51:51;;;;;;;5.45;2.10;;;;;;;;;;5013044;28;20056;-30
2023/05/24 04:54:19;;;;;;;5.22;2.30;;;19.20;75.30;;;;;;5012515;28;20113;-29
2023/05/24 04:56:46;;;;;;;4.95;2.10;;;19.90;75.60;;;;;;5013386;28;20046;-29
2023/05/24 04:59:13;;;;;;;6.68;2.33;;;;;;;;;;5012450;28;20145;-30
2023/05/24 05:01:40;;;;;;;5.10;2.20;;;18.40;74.70;;;;;;5013130;28;20137;-29
2023/05/24 05:04:07;;;;;;;4.32;2.20;;;18.50;75.00;;;;;;5011549;28;20400;-29
2023/05/24 05:06:37;;;;;;;5.32;2.15;;;18.50;74.90;;;;;;5012867;28;20057;-29
2023/05/24 05:09:04;;;;;;;4.72;2.00;;;18.30;75.20;;;;;;5013384;28;20407;-29
2023/05/24 05:11:32;;;;;;;4.68;2.10;;;18.80;75.10;;;;;;5012103;28;20674;-29
2023/05/24 05:13:59;;;;;;;5.53;2.10;;;;;;;;;;5012645;28;20128;-29
2023/05/24 05:16:26;;;;;;;5.10;2.20;;;18.60;75.30;;;;;;5012625;28;20054;-30
2023/05/24 05:18:53;;;;;;;5.05;2.35;;;;;;;;;;5012808;28;20060;-30
2023/05/24 05:21:20;;;;;;;4.82;2.30;;;18.80;61.70;;;;;;5012869;28;20131;-29
2023/05/24 05:23:47;;;;;;;5.10;2.03;;;;;;;;;;5011624;28;20503;-29
2023/05/24 05:26:14;;;;;;;5.18;2.20;;;19.10;63.70;;;;;;5011796;28;20128;-30
2023/05/24 05:28:42;;;;;;;4.82;2.10;;;18.40;75.00;;;;;;5011807;28;20054;-29
2023/05/24 05:31:08;;;;;;;4.97;2.22;;;18.70;74.90;;;;;;5012152;28;20049;-29
2023/05/24 05:33:35;;;;;;;2.88;1.80;;;18.90;75.90;;;;;;5011607;28;20101;-29
2023/05/24 05:36:02;;;;;;;5.70;2.45;;;;;;;;;;5011527;28;20056;-31
2023/05/24 05:38:29;;;;;;;4.88;2.15;;;19.20;75.20;;;;;;5012255;28;20053;-29
2023/05/24 05:40:56;;;;;;;5.88;2.22;;;17.90;74.80;;;;;;5012418;28;20045;-29
2023/05/24 05:43:23;;;;;;;7.68;2.40;;;;;;;;;;5011947;28;20146;-30
2023/05/24 05:45:51;;;;;;;4.20;2.20;;;18.50;56.50;;;;;;5012282;28;20498;-30
2023/05/24 05:48:19;;;;;;;4.82;2.10;;;;;;;;;;5012615;28;20132;-30
2023/05/24 05:50:45;;;;;;;6.22;2.40;;;18.30;58.70;;;;;;5012299;28;20076;-30
2023/05/24 05:53:12;;;;;;;4.28;2.22;;;19.80;75.50;;;;;;5011754;28;20088;-29
2023/05/24 05:55:39;;;;;;;6.88;2.60;;;17.40;64.20;;;;;;5012144;28;20125;-30
2023/05/24 05:58:05;;;;;;;4.05;1.88;;;18.90;75.10;;;;;;5012255;28;20050;-29
2023/05/24 06:00:32;;;;;;;6.05;2.10;;;19.70;75.60;;;;;;5012257;28;20062;-29
2023/05/24 06:03:00;;;;;;;4.93;2.20;;;18.70;58.30;;;;;;5012222;28;20050;-30
2023/05/24 06:05:27;;;;;;;5.60;2.50;;;;;;;;;;5012353;28;20402;-30
2023/05/24 06:07:54;;;;;;;4.80;2.28;;;18.00;66.00;;;;;;5011697;28;20414;-30
2023/05/24 06:10:21;;;;;;;4.65;2.20;;;18.90;75.60;;;;;;5012300;28;20125;-29
2023/05/24 06:12:48;;;;;;;4.55;2.20;;;;;;;;;;5011977;28;20499;-30
2023/05/24 06:15:15;;;;;;;5.68;2.22;;;;;;;;;;5011329;28;20418;-30
2023/05/24 06:17:42;;;;;;;4.68;2.08;;;17.90;72.30;;;;;;5012301;28;20096;-30
2023/05/24 06:20:14;;;;;;;5.20;2.08;;;18.80;56.60;;;;;;5012042;28;20100;-32
2023/05/24 06:22:41;;;;;;;4.53;2.28;;;18.50;75.10;;;;;;5011732;28;20514;-29
2023/05/24 06:25:08;;;;;;;4.18;1.88;;;19.20;75.10;;;;;;5011662;28;20410;-29
2023/05/24 06:27:35;;;;;;;3.63;1.95;;;19.40;74.90;;;;;;5011895;28;20076;-29
2023/05/24 06:30:02;;;;;;;4.88;2.10;;;18.80;65.60;;;;;;5012069;28;20536;-29
2023/05/24 06:32:29;;;;;;;4.78;2.00;;;18.90;74.40;;;;;;5011870;28;20046;-29
2023/05/24 06:34:56;;;;;;;6.13;2.15;;;;;;;;;;5011853;28;20077;-29
2023/05/24 06:37:24;;;;;;;4.25;1.90;;;19.40;74.60;;;;;;5011399;28;20128;-29
2023/05/24 06:39:51;;;;;;;4.32;2.10;;;19.30;74.00;;;;;;5011863;28;20052;-29
2023/05/24 06:42:18;;;;;;;4.05;1.90;;;;;;;;;;5011759;28;20065;-30
2023/05/24 06:44:45;;;;;;;5.18;2.10;;;19.80;74.40;;;;;;5011943;28;20129;-29
2023/05/24 06:47:11;;;;;;;3.28;1.70;;;19.50;73.80;;;;;;5012043;28;20050;-29
2023/05/24 06:49:38;;;;;;;4.05;1.85;;;;;;;;;;5011728;28;20105;-29
2023/05/24 06:52:07;;;;;;;4.18;2.05;;;20.00;74.00;;;;;;5011596;28;20133;-29
2023/05/24 06:54:35;;;;;;;3.63;1.92;;;19.70;61.80;;;;;;5011454;28;20057;-29
2023/05/24 06:57:02;;;;;;;3.50;1.95;;;18.90;73.10;;;;;;5011674;28;20132;-32
2023/05/24 06:59:29;;;;;;;4.43;1.80;;;20.00;73.30;;;;;;5011611;28;20487;-32
2023/05/24 07:01:57;;;;;;;5.63;2.08;;;20.30;73.60;;;;;;5011620;28;20092;-32
2023/05/24 07:04:24;;;;;;;6.82;2.25;;;19.90;72.80;;;;;;5011221;28;20053;-32
2023/05/24 07:06:51;;;;;;;4.75;1.80;;;;;;;;;;5011891;28;20057;-30
2023/05/24 07:09:18;;;;;;;4.90;2.30;;;19.60;72.80;;;;;;5011515;28;20451;-32
2023/05/24 07:11:46;;;;;;;4.03;1.90;;;20.30;54.70;;;;;;5011641;28;20069;-31
2023/05/24 07:14:13;;;;;;;5.15;1.80;;;;;;;;;;5011327;28;20052;-30
2023/05/24 07:16:40;;;;;;;4.55;1.90;;;20.20;72.40;;;;;;5011340;28;20045;-31
2023/05/24 07:19:06;;;;;;;4.10;1.88;;;20.00;72.60;;;;;;5011338;28;20053;-32
2023/05/24 07:21:34;;;;;;;6.35;2.13;;;20.70;60.00;;;;;;5011749;28;20514;-32
2023/05/24 07:24:00;;;;;;;4.13;1.95;;;21.10;72.60;;;;;;5011134;28;20145;-32
2023/05/24 07:26:27;;;;;;;3.83;1.98;;;;;;;;;;5012371;28;20133;-31
2023/05/24 07:28:55;;;;;;;5.95;1.77;;;21.30;72.90;;;;;;5014855;28;20056;-32
2023/05/24 07:31:22;;;;;;;3.00;1.70;;;;;;;;;;5014420;28;20077;-32
2023/05/24 07:33:50;;;;;;;4.47;2.10;;;;;;;;;;5014637;28;20138;-30
2023/05/24 07:36:16;;;;;;;3.03;1.73;;;20.40;73.00;;;;;;5011324;28;20128;-31
2023/05/24 07:38:43;;;;;;;5.15;2.10;;;;;;;;;;5014804;28;20129;-32
2023/05/24 07:41:10;;;;;;;3.90;2.00;;;20.00;68.50;;;;;;5014896;28;20133;-32
2023/05/24 07:43:37;;;;;;;3.40;1.80;;;20.80;73.00;;;;;;5014177;28;20137;-32
2023/05/24 07:46:05;;;;;;;3.65;1.80;;;20.80;59.60;;;;;;5014665;28;20072;-32
2023/05/24 07:48:32;;;;;;;3.15;1.67;;;20.30;61.10;;;;;;5014291;28;20049;-32
2023/05/24 07:50:59;;;;;;;3.50;2.05;;;21.70;72.60;;;;;;5014647;28;20056;-32
2023/05/24 07:53:26;;;;;;;3.30;1.73;;;20.40;72.00;;;;;;5014495;28;20097;-32
2023/05/24 07:55:52;;;;;;;3.58;1.80;;;20.60;69.90;;;;;;5014621;28;20088;-32
2023/05/24 07:58:19;;;;;;;4.15;1.90;;;20.60;72.00;;;;;;5013903;28;20136;-31
2023/05/24 08:00:46;;;;;;;4.50;1.83;;;19.60;71.50;;;;;;5014535;28;20601;-29
2023/05/24 08:03:16;;;;;;;3.40;1.90;;;20.60;54.20;;;;;;5014240;28;20077;-31
2023/05/24 08:05:43;;;;;;;4.28;2.00;;;;;;;;;;5013984;28;20050;-30
2023/05/24 08:08:09;;;;;;;3.60;1.65;;;20.20;71.70;;;;;;5014470;28;20104;-29
2023/05/24 08:10:36;;;;;;;3.08;1.77;;;20.30;72.10;;;;;;5014137;28;20450;-29
2023/05/24 08:13:04;;;;;;;4.10;1.83;;;19.60;65.20;;;;;;5013612;28;20129;-29
2023/05/24 08:15:31;;;;;;;3.50;1.70;;;;;;;;;;5013142;28;20491;-30
2023/05/24 08:17:58;;;;;;;4.70;1.75;;;;;;;;;;5013271;28;20112;-29
2023/05/24 08:20:26;;;;;;;4.50;2.20;;;20.40;54.20;;;;;;5013716;28;20046;-30
2023/05/24 08:22:53;;;;;;;4.95;2.05;;;;;;;;;;5012653;28;20053;-30
2023/05/24 08:25:20;;;;;;;3.38;1.80;;;21.10;72.90;;;;;;5010961;28;20070;-31
2023/05/24 08:27:47;;;;;;;3.35;1.73;;;;;;;;;;5012851;28;20046;-31
2023/05/24 08:30:14;;;;;;;4.45;2.08;;;20.30;68.00;;;;;;4995631;28;20141;-32
2023/05/24 08:32:41;;;;;;;3.08;1.80;;;;;;;;;;5013032;28;20430;-30
2023/05/24 08:35:09;;;;;;;3.53;1.67;;;20.20;72.50;;;;;;5013461;28;20474;-31
2023/05/24 08:37:37;;;;;;;3.47;1.90;;;20.30;54.40;;;;;;5009411;28;20582;-30
2023/05/24 08:40:04;;;;;;;3.22;2.03;;;;;;;;;;5013291;28;20064;-30
2023/05/24 08:42:31;;;;;;;4.80;1.90;;;20.20;65.90;;;;;;5011451;28;20053;-31
2023/05/24 08:44:58;;;;;;;5.20;2.00;;;20.20;54.50;;;;;;5012444;28;20072;-30
2023/05/24 08:47:25;;;;;;;2.92;1.77;;;20.40;72.50;;;;;;5007754;28;20101;-32
2023/05/24 08:49:53;;;;;;;3.08;1.60;;;;;;;;;;4997238;28;20129;-31
2023/05/24 08:52:20;;;;;;;3.15;1.65;;;20.50;73.30;;;;;;5002794;28;20145;-32
2023/05/24 08:54:48;;;;;;;3.00;2.03;;;20.20;54.60;;;;;;5004393;28;20100;-31
2023/05/24 08:57:15;;;;;;;3.25;1.98;;;20.20;69.90;;;;;;4995656;28;20125;-31
2023/05/24 08:59:42;;;;;;;4.72;2.08;;;;;;;;;;4993207;28;20060;-31
2023/05/24 09:02:09;;;;;;;5.75;2.00;;;;;;;;;;4993631;28;20046;-31
2023/05/24 09:04:36;;;;;;;3.60;1.73;;;;;;;;;;5003142;28;20084;-31
2023/05/24 09:07:03;;;;;;;3.30;1.85;;;20.10;72.30;;;;;;5012718;28;20492;-31
2023/05/24 09:09:30;;;;;;;3.85;2.33;;;19.50;72.90;;;;;;5012899;28;20045;-32
2023/05/24 09:12:00;;;;;;;3.10;2.00;;;20.70;59.90;;;;;;5007403;28;20691;-31
2023/05/24 09:14:27;;;;;;;4.07;2.00;;;;;;;;;;5002244;28;20046;-32
2023/05/24 09:16:54;;;;;;;4.25;1.70;;;20.00;72.80;;;;;;5002390;28;20046;-32
2023/05/24 09:19:21;;;;;;;3.08;1.85;;;;;;;;;;5003861;28;20045;-31
2023/05/24 09:21:49;;;;;;;4.95;2.08;;;20.40;72.90;;;;;;4995710;28;20415;-32
2023/05/24 09:24:16;;;;;;;4.70;2.05;;;20.10;72.80;;;;;;4994665;28;20136;-32
2023/05/24 09:26:42;;;;;;;3.30;1.90;;;19.80;72.70;;;;;;5012365;28;20392;-32
2023/05/24 09:29:11;;;;;;;4.30;1.92;;;21.10;60.20;;;;;;5013140;28;20462;-32
2023/05/24 09:31:38;;;;;;;3.63;1.65;;;19.90;72.60;;;;;;5012736;28;20140;-32
2023/05/24 09:34:09;;;;;;;5.63;2.10;;;20.00;58.00;;;;;;5012658;28;20132;-32
2023/05/24 09:36:37;;;;;;;3.10;1.75;;;;;;;;;;5012043;28;20038;-30
2023/05/24 09:39:08;;;;;;;3.33;1.75;;;20.40;56.60;;;;;;5002351;28;20057;-32
2023/05/24 09:41:35;;;;;;;4.53;1.90;;;19.80;73.20;;;;;;4997820;28;20046;-32
2023/05/24 09:44:03;;;;;;;6.25;2.08;;;;;;;;;;5002035;28;20481;-32
2023/05/24 09:46:34;;;;;;;4.72;2.10;;;20.00;54.50;;;;;;5003697;28;20050;-31
2023/05/24 09:49:02;;;;;;;4.55;1.83;;;20.10;72.50;;;;;;5002876;28;20060;-29
2023/05/24 09:51:29;;;;;;;4.25;1.80;;;20.10;72.80;;;;;;5003681;28;20085;-30
2023/05/24 09:54:01;;;;;;;3.78;1.92;;;21.20;68.50;;;;;;5005618;28;20511;-30
2023/05/24 09:56:27;;;;;;;3.95;1.80;;;20.30;73.10;;;;;;5001825;28;20056;-29
2023/05/24 09:58:55;;;;;;;4.68;2.00;;;;;;;;;;4996520;28;20057;-30
2023/05/24 10:01:23;;;;;;;3.58;2.05;;;19.80;58.60;;;;;;4992368;28;20073;-29
2023/05/24 10:03:54;;;;;;;4.28;1.70;;;;;;;;;;4992485;28;20689;-29
2023/05/24 10:06:22;;;;;;;3.10;1.70;;;20.10;72.60;;;;;;4998191;28;20042;-30
2023/05/24 10:08:49;;;;;;;3.90;1.92;;;20.20;72.70;;;;;;5012414;28;20053;-30
2023/05/24 10:11:16;;;;;;;3.17;1.90;;;20.40;72.80;;;;;;5012244;28;20049;-29
2023/05/24 10:13:42;;;;;;;6.25;2.17;;;19.60;56.80;;;;;;5011896;28;20050;-30
2023/05/24 10:16:09;;;;;;;3.90;1.92;;;19.50;72.60;;;;;;5012070;28;20476;-29
2023/05/24 10:18:36;;;;;;;5.07;2.00;;;20.20;73.50;;;;;;5012209;28;20049;-29
2023/05/24 10:21:06;;;;;;;4.82;2.03;;;19.80;65.10;;;;;;5008384;28;20056;-30
2023/05/24 10:23:33;;;;;;;5.57;2.15;;;19.50;64.80;;;;;;5003711;28;20112;-29
2023/05/24 10:26:05;;;;;;;3.50;1.85;;;20.00;72.60;;;;;;5012050;28;20046;-29
2023/05/24 10:28:32;;;;;;;5.35;2.10;;;19.10;72.10;;;;;;5011757;28;20049;-29
2023/05/24 10:31:02;;;;;;;5.47;2.13;;;19.40;72.50;;;;;;5012093;28;20054;-29
2023/05/24 10:33:28;;;;;;;5.05;2.10;;;19.80;72.70;;;;;;5011562;28;20064;-31
2023/05/24 10:35:55;;;;;;;4.13;1.80;;;19.30;64.20;;;;;;5011261;28;20125;-31
2023/05/24 10:38:23;;;;;;;3.67;1.98;;;19.90;61.00;;;;;;5011789;28;20056;-31
2023/05/24 10:40:50;;;;;;;2.90;1.90;;;19.90;72.50;;;;;;5011671;28;20049;-31
2023/05/24 10:43:17;;;;;;;3.70;1.92;;;20.20;72.70;;;;;;5011759;28;20104;-32
2023/05/24 10:45:47;;;;;;;3.85;1.70;;;19.40;71.80;;;;;;5011581;28;20045;-31
2023/05/24 10:48:39;;;;;;;4.65;1.88;;;19.90;73.00;;;;;;5011869;28;20509;-31
2023/05/24 10:51:32;;;;;;;3.67;1.98;;;19.70;72.70;;;;;;5010171;28;20479;-31
2023/05/24 10:54:15;;;;;;;5.15;2.10;;;19.20;73.30;;;;;;5005348;28;20055;-31
2023/05/24 10:56:43;;;;;;;3.85;1.80;;;19.60;61.00;;;;;;5007784;28;20104;-31
2023/05/24 10:59:21;;;;;;;2.78;1.77;;;19.40;55.70;;;;;;5011881;28;20049;-32
2023/05/24 11:01:54;;;;;;;5.93;2.10;;;19.70;54.80;;;;;;5014672;28;20057;-29
2023/05/24 11:04:21;;;;;;;6.22;1.83;;;20.00;72.90;;;;;;5015053;28;20499;-31
2023/05/24 11:06:49;;;;;;;6.72;2.00;;;19.70;54.80;;;;;;5015201;28;20084;-32
2023/05/24 11:09:18;;;;;;;3.35;2.00;;;18.90;72.40;;;;;;5015449;28;20124;-32
2023/05/24 11:11:47;;;;;;;6.03;2.20;;;20.10;73.00;;;;;;5015408;28;20081;-32
2023/05/24 11:14:17;;;;;;;3.38;1.95;;;19.70;54.70;;;;;;5015306;28;20485;-30
2023/05/24 11:16:45;;;;;;;4.50;2.10;;;19.70;72.70;;;;;;5015320;28;20549;-29
2023/05/24 11:19:13;;;;;;;4.28;2.00;;;19.50;72.60;;;;;;5013115;28;20042;-29
2023/05/24 11:21:40;;;;;;;5.50;2.30;;;19.60;59.80;;;;;;5004329;28;20042;-29
2023/05/24 11:24:07;;;;;;;5.38;2.38;;;;;;;;;;5005288;28;20050;-32
2023/05/24 11:26:35;;;;;;;4.65;2.10;;;20.00;72.90;;;;;;5004475;28;20506;-29
2023/05/24 11:29:02;;;;;;;5.80;1.90;;;20.00;72.80;;;;;;5003844;28;20076;-32
2023/05/24 11:31:30;;;;;;;4.70;1.73;;;19.50;61.00;;;;;;5004020;28;20050;-31
2023/05/24 11:33:56;;;;;;;4.20;1.92;;;18.60;72.20;;;;;;5004731;28;20049;-32
2023/05/24 11:36:24;;;;;;;4.15;2.10;;;18.90;58.10;;;;;;5004745;28;20121;-31
2023/05/24 11:38:51;;;;;;;4.40;1.73;;;;;;;;;;5003887;28;20518;-30
2023/05/24 11:41:18;;;;;;;4.60;2.30;;;19.70;72.80;;;;;;5004331;28;20558;-32
2023/05/24 11:43:46;;;;;;;5.70;2.00;;;19.60;54.80;;;;;;5005490;28;20052;-29
2023/05/24 11:46:13;;;;;;;4.38;2.13;;;;;;;;;;5003876;28;20046;-30
2023/05/24 11:48:40;;;;;;;4.85;2.03;;;18.70;72.70;;;;;;5006422;28;20069;-29
2023/05/24 11:51:07;;;;;;;7.38;2.88;;;20.70;73.40;;;;;;5005373;28;20120;-28
2023/05/24 11:53:34;;;;;;;2.90;1.85;;;;;;;;;;5003152;28;20623;-29
2023/05/24 11:56:01;;;;;;;3.88;1.83;;;19.80;72.90;;;;;;5004729;28;20459;-29
2023/05/24 11:58:32;;;;;;;3.42;1.75;;;19.60;55.00;;;;;;5005170;28;20055;-31
2023/05/24 12:01:01;;;;;;;3.90;1.70;;;18.60;72.70;;;;;;5005852;28;20545;-29
2023/05/24 12:03:28;;;;;;;3.70;1.80;;;19.40;72.80;;;;;;5002790;28;20482;-29
2023/05/24 12:05:57;;;;;;;3.10;1.65;;;19.60;62.20;;;;;;5004405;28;20121;-30
2023/05/24 12:08:23;;;;;;;4.70;2.05;;;19.80;73.10;;;;;;5005062;28;20082;-28
2023/05/24 12:10:50;;;;;;;3.40;2.15;;;;;;;;;;5005262;28;20120;-29
2023/05/24 12:13:22;;;;;;;4.47;2.08;;;19.20;73.10;;;;;;5002613;28;20046;-29
2023/05/24 12:15:51;;;;;;;5.05;1.90;;;20.40;73.80;;;;;;5005201;28;20073;-29
2023/05/24 12:18:19;;;;;;;3.92;2.05;;;19.20;73.60;;;;;;5003929;28;20053;-29
2023/05/24 12:20:47;;;;;;;4.95;2.03;;;;;;;;;;5001996;28;20129;-29
2023/05/24 12:23:14;;;;;;;3.08;1.80;;;19.60;73.50;;;;;;5003232;28;20113;-29
2023/05/24 12:25:41;;;;;;;4.53;1.90;;;;;;;;;;5003103;28;20444;-29
2023/05/24 12:28:07;;;;;;;3.40;1.98;;;19.50;73.80;;;;;;5006891;28;20131;-29
2023/05/24 12:30:41;;;;;;;3.63;1.80;;;19.20;73.10;;;;;;5006409;28;20050;-29
2023/05/24 12:33:08;;;;;;;3.25;1.83;;;19.60;73.30;;;;;;5001861;28;20088;-29
2023/05/24 12:35:37;;;;;;;5.78;2.03;;;19.40;65.90;;;;;;4993784;28;20050;-29
2023/05/24 12:38:03;;;;;;;4.97;2.00;;;19.70;73.50;;;;;;5011027;28;20068;-29
2023/05/24 12:40:33;;;;;;;3.80;2.03;;;19.30;72.90;;;;;;5010454;28;20046;-29
2023/05/24 12:43:00;;;;;;;3.63;2.00;;;19.40;73.20;;;;;;5012579;28;20060;-29
2023/05/24 12:45:27;;;;;;;4.18;2.00;;;19.10;73.20;;;;;;5012368;28;20060;-29
2023/05/24 12:47:53;;;;;;;5.68;2.58;;;19.30;67.70;;;;;;5012699;28;20050;-29
2023/05/24 12:50:21;;;;;;;5.15;2.30;;;19.90;74.10;;;;;;5012324;28;20050;-29
2023/05/24 12:52:51;;;;;;;4.32;1.90;;;19.60;56.60;;;;;;5012319;28;20070;-29
2023/05/24 12:55:18;;;;;;;4.63;2.00;;;18.90;73.60;;;;;;5010434;28;20569;-31
2023/05/24 12:57:51;;;;;;;3.58;2.03;;;19.00;73.20;;;;;;5010002;28;20088;-32
2023/05/24 13:00:19;;;;;;;3.70;1.80;;;19.50;73.40;;;;;;5011373;28;20049;-32
2023/05/24 13:02:47;;;;;;;4.05;2.10;;;;;;;;;;5012383;28;20100;-31
2023/05/24 13:05:14;;;;;;;4.07;2.00;;;;;;;;;;5013046;28;20514;-31
2023/05/24 13:07:43;;;;;;;5.55;2.35;;;19.70;63.40;;;;;;4997929;28;20439;-31
2023/05/24 13:10:12;;;;;;;3.25;1.65;;;19.50;55.10;;;;;;5003816;28;20069;-31
2023/05/24 13:12:40;;;;;;;5.22;2.05;;;19.50;73.60;;;;;;5012748;28;20129;-31